Terminal Aerodrome Forecast
Issued by NWS

Home | Current Version | Previous Version | Text Only | Print | Product List | Glossary On
Versions: 1 2 3 4 5 6 7 8 9 10 11 12 13 14 15 16 17
000
FTUS43 KPAH 280528
TAFCGI
TAF
KCGI 280528Z 2806/2906 03007KT P6SM SCT250
     FM281400 04011G17KT P6SM BKN250
     FM290100 03005KT P6SM BKN250=

USA.gov is the U.S. government's official web portal to all federal, state and local government web resources and services.